Time;durP1;ratioP1;P1;durP2;ratioP2;P2;SDS_P1;SDS_P2;PMS_P1;PMS_P2;Temp;Humidity;BMP_temperature;BMP_pressure;BME280_temperature;BME280_humidity;BME280_pressure;Samples;Min_cycle;Max_cycle;Signal;HPM_P1;HPM_P2
2023/03/18 00:02:13;;;;;;;;;;;4.50;99.90;;;;;;5016647;28;19920;-82
2023/03/18 00:04:39;;;;;;;;;;;4.40;99.90;;;;;;5016356;28;19921;-82
2023/03/18 00:07:05;;;;;;;;;;;4.50;99.90;;;;;;5015137;28;19917;-82
2023/03/18 00:09:31;;;;;;;;;;;4.50;99.90;;;;;;5015292;28;19913;-82
2023/03/18 00:11:56;;;;;;;;;;;4.50;99.90;;;;;;5016092;28;19959;-82
2023/03/18 00:14:22;;;;;;;;;;;4.50;99.90;;;;;;5014729;28;19914;-82
2023/03/18 00:16:49;;;;;;;;;;;4.50;99.90;;;;;;5014842;28;19910;-81
2023/03/18 00:19:16;;;;;;;;;;;4.50;99.90;;;;;;4998092;28;20370;-81
2023/03/18 00:21:42;;;;;;;;;;;4.50;99.90;;;;;;5015727;28;19916;-81
2023/03/18 00:24:08;;;;;;;;;;;4.40;99.90;;;;;;5012555;28;19969;-81
2023/03/18 00:26:34;;;;;;;;;;;4.30;99.90;;;;;;4994719;28;19909;-81
2023/03/18 00:29:00;;;;;;;;;;;4.30;99.90;;;;;;5011281;28;19914;-81
2023/03/18 00:31:26;;;;;;;;;;;4.30;99.90;;;;;;4996175;28;19916;-81
2023/03/18 00:33:52;;;;;;;;;;;4.20;99.90;;;;;;4994640;28;19917;-81
2023/03/18 00:36:24;;;;;;;;;;;4.10;99.90;;;;;;4994682;28;20263;-81
2023/03/18 00:38:50;;;;;;;;;;;4.00;99.90;;;;;;5011311;28;19925;-81
2023/03/18 00:41:16;;;;;;;;;;;4.00;99.90;;;;;;4994746;28;19964;-81
2023/03/18 00:43:51;;;;;;;;;;;4.00;99.90;;;;;;4994614;28;19921;-81
2023/03/18 00:46:24;;;;;;;;;;;3.90;99.90;;;;;;4995682;28;20028;-81
2023/03/18 00:48:51;;;;;;;;;;;3.80;99.90;;;;;;4995785;28;19917;-81
2023/03/18 00:51:18;;;;;;;;;;;3.80;99.90;;;;;;4994788;28;20298;-81
2023/03/18 00:53:45;;;;;;;;;;;3.80;99.90;;;;;;4994943;28;19913;-81
2023/03/18 00:56:12;;;;;;;;;;;3.80;99.90;;;;;;5015579;28;19909;-81
2023/03/18 00:58:37;;;;;;;;;;;3.80;99.90;;;;;;5017054;28;19909;-82
2023/03/18 01:01:04;;;;;;;;;;;3.80;99.90;;;;;;5033183;28;19921;-82
2023/03/18 01:03:30;;;;;;;;;;;3.80;99.90;;;;;;5016920;28;19953;-82
2023/03/18 01:05:56;;;;;;;;;;;3.90;99.90;;;;;;5017766;28;19909;-82
2023/03/18 01:08:23;;;;;;;;;;;3.90;99.90;;;;;;5017675;28;19909;-82
2023/03/18 01:10:49;;;;;;;;;;;3.90;99.90;;;;;;5016453;28;20350;-82
2023/03/18 01:13:14;;;;;;;;;;;3.90;99.90;;;;;;5017078;28;19968;-82
2023/03/18 01:15:41;;;;;;;;;;;3.80;99.90;;;;;;5016897;28;19910;-82
2023/03/18 01:18:07;;;;;;;;;;;3.80;99.90;;;;;;5016298;28;19910;-82
2023/03/18 01:20:33;;;;;;;;;;;3.80;99.90;;;;;;5014951;28;19917;-82
2023/03/18 01:22:59;;;;;;;;;;;3.70;99.90;;;;;;5015176;28;19910;-82
2023/03/18 01:25:26;;;;;;;;;;;3.70;99.90;;;;;;5002206;28;20020;-82
2023/03/18 01:27:52;;;;;;;;;;;3.70;99.90;;;;;;4994918;28;19917;-82
2023/03/18 01:30:18;;;;;;;;;;;3.70;99.90;;;;;;4996279;28;20001;-82
2023/03/18 01:32:44;;;;;;;;;;;3.70;99.90;;;;;;4999608;28;20334;-81
2023/03/18 01:35:11;;;;;;;;;;;3.70;99.90;;;;;;5014846;28;20005;-81
2023/03/18 01:37:37;;;;;;;;;;;3.70;99.90;;;;;;4999171;28;19928;-81
2023/03/18 01:40:03;;;;;;;;;;;3.60;99.90;;;;;;4999656;28;19914;-81
2023/03/18 01:42:31;;;;;;;;;;;3.50;99.90;;;;;;5013569;28;21859;-81
2023/03/18 01:45:12;;;;;;;;;;;3.40;99.90;;;;;;4999800;28;19917;-81
2023/03/18 01:47:38;;;;;;;;;;;3.40;99.90;;;;;;5000006;28;20290;-82
2023/03/18 01:50:04;;;;;;;;;;;3.30;99.90;;;;;;4998466;28;19910;-81
2023/03/18 01:52:31;;;;;;;;;;;3.30;99.90;;;;;;5014847;28;20013;-81
2023/03/18 01:55:01;;;;;;;;;;;3.30;99.90;;;;;;5009733;28;19921;-81
2023/03/18 01:57:28;;;;;;;;;;;3.30;99.90;;;;;;5018875;28;19972;-82
2023/03/18 01:59:54;;;;;;;;;;;3.30;99.90;;;;;;5018702;28;19914;-81
2023/03/18 02:02:20;;;;;;;;;;;3.30;99.90;;;;;;5017286;28;19917;-82
2023/03/18 02:04:50;;;;;;;;;;;3.30;99.90;;;;;;5006054;28;20005;-82
2023/03/18 02:07:34;;;;;;;;;;;3.20;99.90;;;;;;4998845;28;19972;-81
2023/03/18 02:10:05;;;;;;;;;;;3.10;99.90;;;;;;4998349;28;19910;-82
2023/03/18 02:12:32;;;;;;;;;;;3.00;99.90;;;;;;4997911;28;20378;-82
2023/03/18 02:14:59;;;;;;;;;;;3.00;99.90;;;;;;4998457;28;19921;-82
2023/03/18 02:17:26;;;;;;;;;;;3.00;99.90;;;;;;4997195;28;20317;-81
2023/03/18 02:20:04;;;;;;;;;;;3.00;99.90;;;;;;4993520;28;20354;-81
2023/03/18 02:22:38;;;;;;;;;;;3.00;99.90;;;;;;4978912;28;20339;-81
2023/03/18 02:25:07;;;;;;;;;;;3.00;99.90;;;;;;5004329;28;20397;-81
2023/03/18 02:27:34;;;;;;;;;;;3.00;99.90;;;;;;4997974;28;19917;-81
2023/03/18 02:30:04;;;;;;;;;;;2.90;99.90;;;;;;4998227;28;20017;-81
2023/03/18 02:32:30;;;;;;;;;;;2.90;99.90;;;;;;4998384;28;19914;-81
2023/03/18 02:34:58;;;;;;;;;;;2.90;99.90;;;;;;4998008;28;20374;-81
2023/03/18 02:37:23;;;;;;;;;;;2.80;99.90;;;;;;4997591;28;19972;-81
2023/03/18 02:39:49;;;;;;;;;;;2.70;99.90;;;;;;4996673;28;19918;-81
2023/03/18 02:42:17;;;;;;;;;;;2.60;99.90;;;;;;4996911;28;20397;-81
2023/03/18 02:44:43;;;;;;;;;;;2.50;99.90;;;;;;4997837;28;19976;-81
2023/03/18 02:47:13;;;;;;;;;;;2.40;99.90;;;;;;4996516;28;20025;-81
2023/03/18 02:49:38;;;;;;;;;;;2.50;99.90;;;;;;4997585;28;19941;-81
2023/03/18 02:52:04;;;;;;;;;;;2.50;99.90;;;;;;4997731;28;19911;-81
2023/03/18 02:54:30;;;;;;;;;;;2.50;99.90;;;;;;5002858;28;19917;-81
2023/03/18 02:56:56;;;;;;;;;;;2.50;99.90;;;;;;5017605;28;19910;-80
2023/03/18 02:59:22;;;;;;;;;;;2.50;99.90;;;;;;5016228;28;19916;-80
2023/03/18 03:01:49;;;;;;;;;;;2.50;99.90;;;;;;5015982;28;20286;-80
2023/03/18 03:04:15;;;;;;;;;;;2.40;99.90;;;;;;5015539;28;19910;-80
2023/03/18 03:06:41;;;;;;;;;;;2.40;99.90;;;;;;5016023;28;20325;-80
2023/03/18 03:09:08;;;;;;;;;;;2.30;99.90;;;;;;5016801;28;19971;-80
2023/03/18 03:11:34;;;;;;;;;;;2.30;99.90;;;;;;5017198;28;19910;-80
2023/03/18 03:13:59;;;;;;;;;;;2.30;99.90;;;;;;5015580;28;19936;-80
2023/03/18 03:16:25;;;;;;;;;;;2.30;99.90;;;;;;5018045;28;19918;-80
2023/03/18 03:18:51;;;;;;;;;;;2.30;99.90;;;;;;5037567;28;19916;-80
2023/03/18 03:21:16;;;;;;;;;;;2.30;99.90;;;;;;5019368;28;19916;-81
2023/03/18 03:23:43;;;;;;;;;;;2.30;99.90;;;;;;5019271;28;19914;-81
2023/03/18 03:26:09;;;;;;;;;;;2.30;99.90;;;;;;4999383;28;20000;-81
2023/03/18 03:28:34;;;;;;;;;;;2.30;99.90;;;;;;4998874;28;19960;-81
2023/03/18 03:31:00;;;;;;;;;;;2.30;99.90;;;;;;4981105;28;19964;-80
2023/03/18 03:33:26;;;;;;;;;;;2.30;99.90;;;;;;4998355;28;19920;-81
2023/03/18 03:35:52;;;;;;;;;;;2.30;99.90;;;;;;4998581;28;19913;-80
2023/03/18 03:38:17;;;;;;;;;;;2.40;99.90;;;;;;4998086;28;19925;-80
2023/03/18 03:40:43;;;;;;;;;;;2.40;99.90;;;;;;4997944;28;19912;-80
2023/03/18 03:43:11;;;;;;;;;;;2.40;99.90;;;;;;4996980;28;20370;-81
2023/03/18 03:45:37;;;;;;;;;;;2.40;99.90;;;;;;4997305;28;19956;-80
2023/03/18 03:48:03;;;;;;;;;;;2.30;99.90;;;;;;4997439;28;19914;-81
2023/03/18 03:50:28;;;;;;;;;;;2.30;99.90;;;;;;4996104;28;19914;-81
2023/03/18 03:52:54;;;;;;;;;;;2.30;99.90;;;;;;4995565;28;19914;-81
2023/03/18 03:55:21;;;;;;;;;;;2.20;99.90;;;;;;4995670;28;19913;-81
2023/03/18 03:57:46;;;;;;;;;;;2.30;99.90;;;;;;4997004;28;19920;-81
2023/03/18 04:00:14;;;;;;;;;;;2.20;99.90;;;;;;5012046;28;19914;-82
2023/03/18 04:02:42;;;;;;;;;;;2.20;99.90;;;;;;4996943;28;20430;-81
2023/03/18 04:05:09;;;;;;;;;;;2.20;99.90;;;;;;5011754;28;19914;-81
2023/03/18 04:07:34;;;;;;;;;;;2.20;99.90;;;;;;4996849;28;19972;-81
2023/03/18 04:10:01;;;;;;;;;;;2.20;99.90;;;;;;4995104;28;20325;-81
2023/03/18 04:12:27;;;;;;;;;;;2.20;99.90;;;;;;4995303;28;19914;-81
2023/03/18 04:14:52;;;;;;;;;;;2.20;99.90;;;;;;5011610;28;19918;-80
2023/03/18 04:17:18;;;;;;;;;;;2.10;99.90;;;;;;4996455;28;19921;-80
2023/03/18 04:19:44;;;;;;;;;;;2.10;99.90;;;;;;5011079;28;19913;-80
2023/03/18 04:22:10;;;;;;;;;;;2.10;99.90;;;;;;5011769;28;19914;-80
2023/03/18 04:24:36;;;;;;;;;;;2.10;99.90;;;;;;5004070;28;20057;-80
2023/03/18 04:27:02;;;;;;;;;;;2.10;99.90;;;;;;4975510;28;19918;-80
2023/03/18 04:29:28;;;;;;;;;;;2.00;99.90;;;;;;4975400;28;19910;-80
2023/03/18 04:31:53;;;;;;;;;;;2.00;99.90;;;;;;4976438;28;19919;-80
2023/03/18 04:34:19;;;;;;;;;;;2.00;99.90;;;;;;4991065;28;19918;-80
2023/03/18 04:36:45;;;;;;;;;;;1.90;99.90;;;;;;4992603;28;20022;-80
2023/03/18 04:39:10;;;;;;;;;;;1.90;99.90;;;;;;4991344;28;19918;-81
2023/03/18 04:41:39;;;;;;;;;;;1.90;99.90;;;;;;4991483;28;19910;-81
2023/03/18 04:44:05;;;;;;;;;;;2.00;99.90;;;;;;4976186;28;19914;-80
2023/03/18 04:46:31;;;;;;;;;;;1.90;99.90;;;;;;4974920;28;19961;-81
2023/03/18 04:48:57;;;;;;;;;;;1.90;99.90;;;;;;4991244;28;19961;-80
2023/03/18 04:51:23;;;;;;;;;;;1.90;99.90;;;;;;4991702;28;20294;-80
2023/03/18 04:53:49;;;;;;;;;;;1.90;99.90;;;;;;4976238;28;19973;-80
2023/03/18 04:56:14;;;;;;;;;;;1.80;99.90;;;;;;4976510;28;19972;-80
2023/03/18 04:58:40;;;;;;;;;;;1.80;99.90;;;;;;4991815;28;19910;-80
2023/03/18 05:01:05;;;;;;;;;;;1.80;99.90;;;;;;4991492;28;19921;-81
2023/03/18 05:03:31;;;;;;;;;;;1.80;99.90;;;;;;4976622;28;19911;-81
2023/03/18 05:05:57;;;;;;;;;;;1.80;99.90;;;;;;4977633;28;19920;-81
2023/03/18 05:08:22;;;;;;;;;;;1.80;99.90;;;;;;4980440;28;19914;-80
2023/03/18 05:10:48;;;;;;;;;;;1.80;99.90;;;;;;4995304;28;20009;-80
2023/03/18 05:13:15;;;;;;;;;;;1.80;99.90;;;;;;4980933;28;19922;-80
2023/03/18 05:15:41;;;;;;;;;;;1.80;99.90;;;;;;4995070;28;20290;-80
2023/03/18 05:18:07;;;;;;;;;;;1.80;99.90;;;;;;4978491;28;19910;-80
2023/03/18 05:20:32;;;;;;;;;;;1.80;99.90;;;;;;4980209;28;19910;-80
2023/03/18 05:22:58;;;;;;;;;;;1.80;99.90;;;;;;4980154;28;20298;-80
2023/03/18 05:25:24;;;;;;;;;;;1.80;99.90;;;;;;5008641;28;20297;-80
2023/03/18 05:27:50;;;;;;;;;;;1.80;99.90;;;;;;4999677;28;19972;-80
2023/03/18 05:30:15;;;;;;;;;;;1.70;99.90;;;;;;4998072;28;20361;-80
2023/03/18 05:32:41;;;;;;;;;;;1.70;99.90;;;;;;4998241;28;19910;-80
2023/03/18 05:35:08;;;;;;;;;;;1.60;99.90;;;;;;5007086;28;19917;-80
2023/03/18 05:37:33;;;;;;;;;;;1.60;99.90;;;;;;5028470;28;19921;-80
2023/03/18 05:40:00;;;;;;;;;;;1.70;99.90;;;;;;4984093;28;20008;-81
2023/03/18 05:42:26;;;;;;;;;;;1.70;99.90;;;;;;5000224;28;19918;-80
2023/03/18 05:44:51;;;;;;;;;;;1.70;99.90;;;;;;5015206;28;19913;-80
2023/03/18 05:47:17;;;;;;;;;;;1.80;99.90;;;;;;5000670;28;19910;-80
2023/03/18 05:49:42;;;;;;;;;;;1.80;99.90;;;;;;5000437;28;19925;-80
2023/03/18 05:52:09;;;;;;;;;;;1.80;99.90;;;;;;5014353;28;19913;-80
2023/03/18 05:54:34;;;;;;;;;;;1.80;99.90;;;;;;5014888;28;19922;-80
2023/03/18 05:57:00;;;;;;;;;;;1.80;99.90;;;;;;5014455;28;19937;-80
2023/03/18 05:59:25;;;;;;;;;;;1.80;99.90;;;;;;4998768;28;20019;-80
2023/03/18 06:01:52;;;;;;;;;;;1.80;99.90;;;;;;5015239;28;19921;-80
2023/03/18 06:04:18;;;;;;;;;;;1.80;99.90;;;;;;4999394;28;20293;-79
2023/03/18 06:06:44;;;;;;;;;;;1.90;99.90;;;;;;4998656;28;19917;-80
2023/03/18 06:09:11;;;;;;;;;;;1.90;99.90;;;;;;4999230;28;19921;-80
2023/03/18 06:11:36;;;;;;;;;;;2.00;99.90;;;;;;4999220;28;20359;-80
2023/03/18 06:14:05;;;;;;;;;;;2.00;99.90;;;;;;5017382;28;19925;-80
2023/03/18 06:16:32;;;;;;;;;;;2.00;99.90;;;;;;5014030;28;19914;-80
2023/03/18 06:18:58;;;;;;;;;;;2.10;99.90;;;;;;5013502;28;19921;-80
2023/03/18 06:21:24;;;;;;;;;;;2.10;99.90;;;;;;4997555;28;19910;-80
2023/03/18 06:23:50;;;;;;;;;;;2.20;99.90;;;;;;4996786;28;19914;-80
2023/03/18 06:26:15;;;;;;;;;;;2.20;99.90;;;;;;4998586;28;19921;-80
2023/03/18 06:28:41;;;;;;;;;;;2.20;99.90;;;;;;4996684;28;19942;-80
2023/03/18 06:31:07;;;;;;;;;;;2.30;99.90;;;;;;4996985;28;19918;-79
2023/03/18 06:33:32;;;;;;;;;;;2.30;99.90;;;;;;4996694;28;20432;-78
2023/03/18 06:35:59;;;;;;;;;;;2.30;99.90;;;;;;4996815;28;19917;-77
2023/03/18 06:38:26;;;;;;;;;;;2.40;99.90;;;;;;4997796;28;19979;-79
2023/03/18 06:40:51;;;;;;;;;;;2.50;99.90;;;;;;4996769;28;20290;-79
2023/03/18 06:43:17;;;;;;;;;;;2.50;99.90;;;;;;4998042;28;19910;-79
2023/03/18 06:45:43;;;;;;;;;;;2.60;99.90;;;;;;4997986;28;19913;-79
2023/03/18 06:48:09;;;;;;;;;;;2.60;99.90;;;;;;4997875;28;20287;-78
2023/03/18 06:50:35;;;;;;;;;;;2.70;99.90;;;;;;4997896;28;19929;-77
2023/03/18 06:53:01;;;;;;;;;;;2.70;99.90;;;;;;5016648;28;19945;-78
2023/03/18 06:55:27;;;;;;;;;;;2.80;99.90;;;;;;5016924;28;19914;-81
2023/03/18 06:57:53;;;;;;;;;;;2.80;99.90;;;;;;5015914;28;20008;-82
2023/03/18 07:00:20;;;;;;;;;;;2.90;99.90;;;;;;5016569;28;19964;-82
2023/03/18 07:02:46;;;;;;;;;;;3.00;99.90;;;;;;5016030;28;20012;-82
2023/03/18 07:05:11;;;;;;;;;;;3.00;99.90;;;;;;5015948;28;19967;-82
2023/03/18 07:07:38;;;;;;;;;;;3.10;99.90;;;;;;4999233;28;19913;-82
2023/03/18 07:10:04;;;;;;;;;;;3.10;99.90;;;;;;5017268;28;19917;-82
2023/03/18 07:12:30;;;;;;;;;;;3.10;99.90;;;;;;5018563;28;19920;-82
2023/03/18 07:14:56;;;;;;;;;;;3.20;99.90;;;;;;5017672;28;19917;-82
2023/03/18 07:17:21;;;;;;;;;;;3.30;99.90;;;;;;5016483;28;19914;-82
2023/03/18 07:19:47;;;;;;;;;;;3.30;99.90;;;;;;4999839;28;19920;-82
2023/03/18 07:22:14;;;;;;;;;;;3.40;99.90;;;;;;5003949;28;20277;-82
2023/03/18 07:24:40;;;;;;;;;;;3.50;99.90;;;;;;4997683;28;19910;-83
2023/03/18 07:27:05;;;;;;;;;;;3.60;99.90;;;;;;5011659;28;20305;-82
2023/03/18 07:29:32;;;;;;;;;;;3.70;99.90;;;;;;5010886;28;19961;-82
2023/03/18 07:31:57;;;;;;;;;;;3.70;99.90;;;;;;5011820;28;19914;-82
2023/03/18 07:34:23;;;;;;;;;;;3.80;99.90;;;;;;4994898;28;19980;-82
2023/03/18 07:36:49;;;;;;;;;;;3.90;99.90;;;;;;5011064;28;19968;-82
2023/03/18 07:39:14;;;;;;;;;;;4.00;99.90;;;;;;4991062;28;19918;-82
2023/03/18 07:41:40;;;;;;;;;;;4.10;99.90;;;;;;4975002;28;20430;-82
2023/03/18 07:44:06;;;;;;;;;;;4.20;99.90;;;;;;4976234;28;20290;-82
2023/03/18 07:46:32;;;;;;;;;;;4.20;99.90;;;;;;4959085;28;19914;-82
2023/03/18 07:48:57;;;;;;;;;;;4.30;99.90;;;;;;4988430;28;20392;-83
2023/03/18 07:51:23;;;;;;;;;;;4.40;99.90;;;;;;5001535;28;19910;-83
2023/03/18 07:53:50;;;;;;;;;;;4.50;99.90;;;;;;5011163;28;19922;-82
2023/03/18 07:56:16;;;;;;;;;;;4.70;99.90;;;;;;5000248;28;19925;-83
2023/03/18 07:58:42;;;;;;;;;;;4.80;99.90;;;;;;4996415;28;19910;-83
2023/03/18 08:01:08;;;;;;;;;;;4.90;99.90;;;;;;5011706;28;19917;-82
2023/03/18 08:03:34;;;;;;;;;;;5.00;99.90;;;;;;4993890;28;19910;-82
2023/03/18 08:05:59;;;;;;;;;;;5.10;99.90;;;;;;4977248;28;19921;-83
2023/03/18 08:08:25;;;;;;;;;;;5.20;99.90;;;;;;4995003;28;19925;-82
2023/03/18 08:10:55;;;;;;;;;;;5.40;99.90;;;;;;4994208;28;19939;-82
2023/03/18 08:13:20;;;;;;;;;;;5.50;99.90;;;;;;4995135;28;19921;-82
2023/03/18 08:15:47;;;;;;;;;;;5.60;99.90;;;;;;4995419;28;19914;-82
2023/03/18 08:18:12;;;;;;;;;;;5.70;99.90;;;;;;4994983;28;19921;-82
2023/03/18 08:20:38;;;;;;;;;;;5.80;99.90;;;;;;4995678;28;20281;-83
2023/03/18 08:23:04;;;;;;;;;;;5.90;99.90;;;;;;5014451;28;20393;-83
2023/03/18 08:25:29;;;;;;;;;;;6.10;99.90;;;;;;5014594;28;19913;-83
2023/03/18 08:27:55;;;;;;;;;;;6.30;99.90;;;;;;5013321;28;20282;-83
2023/03/18 08:30:24;;;;;;;;;;;6.40;99.90;;;;;;5014608;28;20370;-83
2023/03/18 08:32:49;;;;;;;;;;;6.60;99.90;;;;;;5013209;28;19971;-83
2023/03/18 08:35:15;;;;;;;;;;;6.70;99.90;;;;;;5014537;28;19921;-83
2023/03/18 08:37:41;;;;;;;;;;;6.90;99.90;;;;;;5012695;28;19922;-82
2023/03/18 08:40:08;;;;;;;;;;;7.00;99.90;;;;;;5013647;28;20294;-83
2023/03/18 08:42:34;;;;;;;;;;;7.20;99.90;;;;;;5014152;28;20004;-83
2023/03/18 08:45:00;;;;;;;;;;;7.30;99.90;;;;;;5012971;28;20064;-83
2023/03/18 08:47:26;;;;;;;;;;;7.40;99.90;;;;;;5012931;28;19918;-83
2023/03/18 08:49:51;;;;;;;;;;;7.50;99.90;;;;;;5013377;28;19920;-83
2023/03/18 08:52:17;;;;;;;;;;;7.70;99.90;;;;;;5000065;28;20371;-82
2023/03/18 08:54:43;;;;;;;;;;;7.80;99.90;;;;;;4994435;28;20286;-82
2023/03/18 08:57:09;;;;;;;;;;;7.90;99.90;;;;;;4994573;28;19920;-82
2023/03/18 08:59:35;;;;;;;;;;;8.00;99.90;;;;;;4994669;28;19910;-82
2023/03/18 09:02:01;;;;;;;;;;;8.10;99.90;;;;;;5009992;28;20366;-83
2023/03/18 09:04:28;;;;;;;;;;;8.20;99.90;;;;;;4994515;28;19910;-83
2023/03/18 09:06:53;;;;;;;;;;;8.40;99.90;;;;;;5009259;28;20005;-83
2023/03/18 09:09:19;;;;;;;;;;;8.50;99.90;;;;;;5009773;28;19946;-82
2023/03/18 09:11:45;;;;;;;;;;;8.70;99.90;;;;;;4994680;28;19914;-83
2023/03/18 09:14:12;;;;;;;;;;;8.80;99.90;;;;;;5009692;28;19925;-83
2023/03/18 09:16:37;;;;;;;;;;;8.90;99.90;;;;;;5009564;28;19964;-82
2023/03/18 09:19:03;;;;;;;;;;;9.10;99.90;;;;;;5009827;28;20016;-83
2023/03/18 09:21:29;;;;;;;;;;;9.20;99.90;;;;;;5002196;28;19918;-84
2023/03/18 09:23:55;;;;;;;;;;;9.30;99.90;;;;;;4991216;28;20282;-84
2023/03/18 09:26:20;;;;;;;;;;;9.40;99.90;;;;;;4973871;28;20000;-83
2023/03/18 09:28:46;;;;;;;;;;;9.60;99.90;;;;;;4990216;28;20008;-84
2023/03/18 09:31:12;;;;;;;;;;;9.70;99.90;;;;;;4973806;28;19917;-83
2023/03/18 09:33:38;;;;;;;;;;;9.80;99.90;;;;;;4991266;28;19921;-83
2023/03/18 09:36:04;;;;;;;;;;;9.90;99.90;;;;;;4992834;28;19937;-83
2023/03/18 09:38:30;;;;;;;;;;;10.10;99.90;;;;;;4993536;28;19918;-84
2023/03/18 09:41:01;;;;;;;;;;;10.30;99.90;;;;;;5009416;28;19918;-83
2023/03/18 09:43:45;;;;;;;;;;;10.40;99.90;;;;;;4995003;28;19917;-84
2023/03/18 09:46:31;;;;;;;;;;;10.50;99.90;;;;;;4994181;28;19960;-84
2023/03/18 09:49:04;;;;;;;;;;;10.70;99.90;;;;;;4977123;28;19911;-84
2023/03/18 09:51:29;;;;;;;;;;;10.90;99.90;;;;;;4984141;28;19953;-84
2023/03/18 09:54:01;;;;;;;;;;;11.10;99.90;;;;;;4997157;28;19961;-84
2023/03/18 09:56:31;;;;;;;;;;;11.20;99.90;;;;;;4998145;28;20345;-83
2023/03/18 09:59:02;;;;;;;;;;;11.40;99.90;;;;;;4992510;28;19910;-83
2023/03/18 10:01:28;;;;;;;;;;;11.50;99.90;;;;;;4978412;28;19942;-83
2023/03/18 10:04:06;;;;;;;;;;;11.60;99.90;;;;;;4985629;28;19921;-84
2023/03/18 10:06:32;;;;;;;;;;;11.70;99.90;;;;;;4996408;28;19960;-84
2023/03/18 10:09:12;;;;;;;;;;;11.90;99.00;;;;;;4997623;28;19917;-84
2023/03/18 10:11:41;;;;;;;;;;;12.10;98.60;;;;;;5010947;28;19933;-83
2023/03/18 10:14:25;;;;;;;;;;;12.20;98.90;;;;;;5006725;28;19921;-84
2023/03/18 10:17:02;;;;;;;;;;;12.30;96.70;;;;;;5001479;28;19916;-84
2023/03/18 10:19:28;;;;;;;;;;;12.40;95.50;;;;;;5001352;28;19910;-84
2023/03/18 10:21:53;;;;;;;;;;;12.50;95.20;;;;;;5005125;28;19944;-84
2023/03/18 10:24:29;;;;;;;;;;;12.60;94.20;;;;;;4997041;28;19913;-84
2023/03/18 10:27:07;;;;;;;;;;;12.70;93.90;;;;;;5015134;28;19932;-84
2023/03/18 10:29:33;;;;;;;;;;;12.80;96.40;;;;;;4982065;28;20271;-84
2023/03/18 10:32:08;;;;;;;;;;;13.00;97.40;;;;;;5014421;28;19917;-84
2023/03/18 10:34:52;;;;;;;;;;;13.00;96.50;;;;;;4991413;28;19914;-84
2023/03/18 10:37:22;;;;;;;;;;;13.20;95.70;;;;;;4994783;28;19922;-84
2023/03/18 10:39:48;;;;;;;;;;;13.30;94.50;;;;;;4995264;28;19964;-84
2023/03/18 10:42:18;;;;;;;;;;;13.40;94.20;;;;;;5000673;28;19913;-84
2023/03/18 10:44:44;;;;;;;;;;;13.50;93.70;;;;;;4999626;28;19916;-84
2023/03/18 10:47:14;;;;;;;;;;;13.60;91.50;;;;;;4998734;28;20334;-84
2023/03/18 10:49:42;;;;;;;;;;;13.60;90.80;;;;;;4995140;28;20287;-84
2023/03/18 10:52:27;;;;;;;;;;;13.70;89.10;;;;;;4988217;28;19910;-84
2023/03/18 10:54:53;;;;;;;;;;;13.80;88.60;;;;;;4998104;28;19914;-84
2023/03/18 10:57:20;;;;;;;;;;;14.00;85.30;;;;;;4997154;28;19921;-84
2023/03/18 10:59:46;;;;;;;;;;;14.10;84.40;;;;;;4995883;28;19936;-84
2023/03/18 11:02:15;;;;;;;;;;;14.30;84.80;;;;;;5004434;28;19922;-84
2023/03/18 11:05:03;;;;;;;;;;;14.30;85.50;;;;;;4996693;28;20401;-83
2023/03/18 11:07:29;;;;;;;;;;;14.40;81.50;;;;;;4985363;28;19917;-84
2023/03/18 11:10:09;;;;;;;;;;;14.40;80.70;;;;;;4998684;28;19921;-84
2023/03/18 11:12:35;;;;;;;;;;;14.50;83.00;;;;;;4996738;28;19910;-83
2023/03/18 11:15:05;;;;;;;;;;;14.70;83.70;;;;;;4978231;28;20344;-84
2023/03/18 11:17:32;;;;;;;;;;;14.80;83.30;;;;;;4995673;28;19992;-83
2023/03/18 11:20:18;;;;;;;;;;;15.00;83.80;;;;;;4994972;28;19910;-83
2023/03/18 11:22:45;;;;;;;;;;;15.20;81.90;;;;;;4993642;28;19910;-82
2023/03/18 11:25:13;;;;;;;;;;;15.30;80.80;;;;;;4995498;28;20286;-82
2023/03/18 11:27:40;;;;;;;;;;;15.40;75.80;;;;;;4997511;28;19957;-82
2023/03/18 11:30:26;;;;;;;;;;;15.50;76.50;;;;;;4997125;28;20001;-84
2023/03/18 11:32:57;;;;;;;;;;;15.60;75.20;;;;;;4997094;28;20362;-84
2023/03/18 11:35:43;;;;;;;;;;;15.70;75.60;;;;;;4997389;28;20389;-84
2023/03/18 11:38:19;;;;;;;;;;;15.90;76.60;;;;;;4995886;28;19925;-83
2023/03/18 11:40:45;;;;;;;;;;;16.00;74.70;;;;;;4997249;28;19917;-82
2023/03/18 11:43:19;;;;;;;;;;;16.10;73.30;;;;;;4996248;28;19910;-81
2023/03/18 11:45:47;;;;;;;;;;;16.20;73.10;;;;;;4997659;28;19945;-82
2023/03/18 11:48:36;;;;;;;;;;;16.30;70.70;;;;;;4998281;28;19960;-82
2023/03/18 11:51:24;;;;;;;;;;;16.40;72.00;;;;;;4997492;28;19956;-82
2023/03/18 11:54:08;;;;;;;;;;;16.50;69.30;;;;;;4996772;28;19964;-82
2023/03/18 11:56:37;;;;;;;;;;;16.60;72.40;;;;;;4998221;28;19917;-82
2023/03/18 11:59:22;;;;;;;;;;;16.80;69.30;;;;;;4999219;28;19910;-82
2023/03/18 12:01:55;;;;;;;;;;;16.80;66.20;;;;;;4998797;28;20396;-82
2023/03/18 12:04:41;;;;;;;;;;;16.90;66.60;;;;;;4997167;28;19948;-82
2023/03/18 12:07:07;;;;;;;;;;;17.00;67.50;;;;;;4994410;28;20004;-81
2023/03/18 12:09:40;;;;;;;;;;;17.10;67.70;;;;;;4996256;28;19910;-81
2023/03/18 12:12:12;;;;;;;;;;;17.20;67.80;;;;;;4996221;28;19917;-81
2023/03/18 12:14:44;;;;;;;;;;;17.20;65.50;;;;;;4996437;28;19914;-81
2023/03/18 12:17:13;;;;;;;;;;;17.30;63.40;;;;;;4996360;28;20392;-81
2023/03/18 12:19:51;;;;;;;;;;;17.30;63.70;;;;;;4996051;28;19976;-82
2023/03/18 12:22:27;;;;;;;;;;;17.30;65.40;;;;;;5005502;28;19957;-82
2023/03/18 12:24:59;;;;;;;;;;;17.40;66.70;;;;;;4995418;28;20274;-81
2023/03/18 12:27:28;;;;;;;;;;;17.60;66.40;;;;;;5003853;28;19910;-82
2023/03/18 12:30:06;;;;;;;;;;;17.70;63.30;;;;;;5003722;28;19910;-82
2023/03/18 12:32:40;;;;;;;;;;;17.70;65.50;;;;;;4996531;28;19910;-82
2023/03/18 12:35:22;;;;;;;;;;;17.80;64.00;;;;;;4997502;28;19917;-82
2023/03/18 12:38:12;;;;;;;;;;;18.00;63.40;;;;;;4990888;28;20017;-82
2023/03/18 12:40:46;;;;;;;;;;;18.20;67.20;;;;;;4987085;28;19909;-82
2023/03/18 12:43:30;;;;;;;;;;;18.30;62.50;;;;;;4997319;28;19933;-82
2023/03/18 12:46:03;;;;;;;;;;;18.30;66.30;;;;;;4997459;28;19997;-82
2023/03/18 12:48:31;;;;;;;;;;;18.30;62.00;;;;;;4995767;28;20001;-82
2023/03/18 12:51:02;;;;;;;;;;;18.20;63.40;;;;;;5015304;28;19916;-82
2023/03/18 12:53:30;;;;;;;;;;;18.30;62.30;;;;;;5007714;28;20012;-82
2023/03/18 12:56:00;;;;;;;;;;;18.50;63.60;;;;;;4996554;28;19936;-81
2023/03/18 12:58:45;;;;;;;;;;;18.70;59.30;;;;;;4994989;28;20340;-82
2023/03/18 13:01:20;;;;;;;;;;;18.70;60.80;;;;;;4995054;28;20016;-82
2023/03/18 13:03:55;;;;;;;;;;;18.90;61.20;;;;;;4995076;28;19937;-82
2023/03/18 13:06:39;;;;;;;;;;;19.10;58.90;;;;;;4994886;28;19914;-82
2023/03/18 13:09:05;;;;;;;;;;;19.20;59.60;;;;;;4996325;28;19910;-82
2023/03/18 13:11:49;;;;;;;;;;;19.30;59.00;;;;;;4995115;28;19910;-82
2023/03/18 13:14:27;;;;;;;;;;;19.20;56.80;;;;;;4994447;28;20267;-82
2023/03/18 13:16:54;;;;;;;;;;;19.20;56.50;;;;;;4995678;28;20302;-82
2023/03/18 13:19:19;;;;;;;;;;;19.10;56.60;;;;;;4996261;28;19977;-82
2023/03/18 13:21:47;;;;;;;;;;;19.10;56.70;;;;;;4994705;28;20508;-82
2023/03/18 13:24:21;;;;;;;;;;;19.00;57.20;;;;;;4995526;28;19964;-82
2023/03/18 13:26:53;;;;;;;;;;;19.10;56.60;;;;;;4995242;28;19910;-82
2023/03/18 13:29:39;;;;;;;;;;;19.10;59.10;;;;;;4998758;28;19935;-82
2023/03/18 13:32:21;;;;;;;;;;;19.20;57.40;;;;;;4975265;28;19918;-82
2023/03/18 13:34:55;;;;;;;;;;;19.30;56.00;;;;;;4995104;28;19922;-82
2023/03/18 13:37:33;;;;;;;;;;;19.40;55.30;;;;;;5006115;28;19922;-82
2023/03/18 13:40:16;;;;;;;;;;;19.40;54.20;;;;;;4998107;28;19917;-82
2023/03/18 13:42:43;;;;;;;;;;;19.40;55.30;;;;;;4999356;28;20373;-82
2023/03/18 13:45:18;;;;;;;;;;;19.40;55.00;;;;;;4999149;28;19910;-82
2023/03/18 13:47:45;;;;;;;;;;;19.40;55.40;;;;;;5005669;28;19936;-81
2023/03/18 13:50:19;;;;;;;;;;;19.40;54.70;;;;;;4979299;28;19973;-82
2023/03/18 13:52:46;;;;;;;;;;;19.40;55.80;;;;;;4983006;28;19909;-82
2023/03/18 13:55:24;;;;;;;;;;;19.40;54.30;;;;;;4997826;28;19918;-82
2023/03/18 13:58:08;;;;;;;;;;;19.40;55.90;;;;;;4999023;28;20363;-82
2023/03/18 14:00:35;;;;;;;;;;;19.50;57.20;;;;;;4998207;28;19913;-81
2023/03/18 14:03:03;;;;;;;;;;;19.50;54.40;;;;;;4997642;28;19976;-82
2023/03/18 14:05:35;;;;;;;;;;;19.50;57.20;;;;;;4998681;28;19960;-81
2023/03/18 14:08:19;;;;;;;;;;;19.50;55.00;;;;;;5015190;28;19969;-82
2023/03/18 14:10:45;;;;;;;;;;;19.30;56.00;;;;;;5018106;28;19931;-82
2023/03/18 14:13:24;;;;;;;;;;;19.40;54.70;;;;;;5000790;28;19913;-82
2023/03/18 14:15:50;;;;;;;;;;;19.40;54.80;;;;;;5018771;28;19917;-82
2023/03/18 14:18:24;;;;;;;;;;;19.40;55.90;;;;;;5002067;28;19923;-82
2023/03/18 14:20:53;;;;;;;;;;;19.40;55.20;;;;;;5018232;28;19910;-82
2023/03/18 14:23:26;;;;;;;;;;;19.40;56.50;;;;;;5001482;28;19914;-82
2023/03/18 14:26:07;;;;;;;;;;;19.50;55.60;;;;;;5018128;28;19953;-82
2023/03/18 14:28:40;;;;;;;;;;;19.40;53.60;;;;;;5018651;28;19964;-82
2023/03/18 14:31:19;;;;;;;;;;;19.30;55.20;;;;;;5018528;28;20421;-82
2023/03/18 14:33:57;;;;;;;;;;;19.30;56.40;;;;;;5018867;28;20362;-82
2023/03/18 14:36:27;;;;;;;;;;;19.30;55.80;;;;;;5014026;28;20378;-82